Time;durP1;ratioP1;P1;durP2;ratioP2;P2;SDS_P1;SDS_P2;PMS_P1;PMS_P2;Temp;Humidity;BMP_temperature;BMP_pressure;BME280_temperature;BME280_humidity;BME280_pressure;Samples;Min_cycle;Max_cycle;Signal;HPM_P1;HPM_P2
2021/05/21 00:00:10;;;;;;;2.63;1.97;;;;;;;;;;6118395;23;20277;-90
2021/05/21 00:03:14;;;;;;;2.47;1.70;;;;;;;;;;6103850;23;20170;-88
2021/05/21 00:06:18;;;;;;;2.83;1.87;;;;;;;;;;6103202;23;20214;-89
2021/05/21 00:09:24;;;;;;;4.53;1.97;;;;;;;;;;6118434;23;20174;-88
2021/05/21 00:12:28;;;;;;;2.80;1.87;;;;;;;;;;6101592;23;20189;-88
2021/05/21 00:15:32;;;;;;;2.47;1.97;;;;;;;;;;6100948;23;20209;-90
2021/05/21 00:18:37;;;;;;;3.63;1.93;;;;;;;;;;6119089;23;20749;-89
2021/05/21 00:21:41;;;;;;;3.80;2.03;;;;;;;;;;6118801;23;20222;-88
2021/05/21 00:24:47;;;;;;;6.47;2.20;;;;;;;;;;6118519;23;20197;-89
2021/05/21 00:27:51;;;;;;;2.90;2.10;;;;;;;;;;6118432;23;20509;-91
2021/05/21 00:30:56;;;;;;;2.47;1.70;;;;;;;;;;6117667;23;20209;-90
2021/05/21 00:34:00;;;;;;;4.90;2.10;;;;;;;;;;6118266;23;20210;-89
2021/05/21 00:37:05;;;;;;;3.70;2.23;;;;;;;;;;6102167;23;20475;-89
2021/05/21 00:40:11;;;;;;;4.00;2.20;;;;;;;;;;6101078;23;20315;-88
2021/05/21 00:43:17;;;;;;;4.93;2.30;;;;;;;;;;6120255;23;20176;-88
2021/05/21 00:46:24;;;;;;;6.10;2.10;;;;;;;;;;6119178;23;20169;-88
2021/05/21 00:49:28;;;;;;;4.50;2.50;;;;;;;;;;6103276;23;20178;-91
2021/05/21 00:52:33;;;;;;;2.13;1.80;;;;;;;;;;6100045;23;20194;-87
2021/05/21 00:55:39;;;;;;;2.53;1.70;;;;;;;;;;6117816;23;20202;-89
2021/05/21 00:58:43;;;;;;;2.63;1.70;;;;;;;;;;6100265;23;20209;-90
2021/05/21 01:01:48;;;;;;;3.03;2.00;;;;;;;;;;6117832;23;20178;-87
2021/05/21 01:04:53;;;;;;;3.57;2.30;;;;;;;;;;6101795;23;20296;-90
2021/05/21 01:07:58;;;;;;;3.03;1.90;;;;;;;;;;6101579;23;20176;-88
2021/05/21 01:11:04;;;;;;;6.17;2.00;;;;;;;;;;6101518;23;20174;-89
2021/05/21 01:14:08;;;;;;;3.23;1.93;;;;;;;;;;6119174;23;20250;-89
2021/05/21 01:17:12;;;;;;;5.23;2.20;;;;;;;;;;6102286;23;20174;-88
2021/05/21 01:20:17;;;;;;;3.77;2.00;;;;;;;;;;6102192;23;20218;-90
2021/05/21 01:23:22;;;;;;;4.73;2.20;;;;;;;;;;6118869;23;20173;-88
2021/05/21 01:26:27;;;;;;;4.80;2.10;;;;;;;;;;6102572;23;20178;-90
2021/05/21 01:29:32;;;;;;;2.97;1.90;;;;;;;;;;6103050;23;20225;-88
2021/05/21 01:32:36;;;;;;;2.40;1.80;;;;;;;;;;6100907;23;20181;-89
2021/05/21 01:35:41;;;;;;;1.90;1.70;;;;;;;;;;6101406;23;20212;-89
2021/05/21 01:38:57;;;;;;;2.30;1.60;;;;;;;;;;6118266;23;20226;-89
2021/05/21 01:42:02;;;;;;;2.93;1.90;;;;;;;;;;6102821;23;20174;-87
2021/05/21 01:45:08;;;;;;;2.77;1.90;;;;;;;;;;6102698;23;20209;-89
2021/05/21 01:48:13;;;;;;;5.47;2.03;;;;;;;;;;6102466;23;20648;-90
2021/05/21 01:51:17;;;;;;;3.67;2.30;;;;;;;;;;6121134;23;20161;-90
2021/05/21 01:54:22;;;;;;;4.83;2.13;;;;;;;;;;6104130;23;20269;-87
2021/05/21 01:57:27;;;;;;;6.40;2.30;;;;;;;;;;6103850;23;20178;-88
2021/05/21 02:00:31;;;;;;;3.73;2.10;;;;;;;;;;6121834;23;20149;-90
2021/05/21 02:03:36;;;;;;;3.00;2.13;;;;;;;;;;6102764;23;20173;-89
2021/05/21 02:06:40;;;;;;;4.03;2.30;;;;;;;;;;6103335;23;20209;-89
2021/05/21 02:09:48;;;;;;;3.10;2.20;;;;;;;;;;6119885;23;20259;-87
2021/05/21 02:12:53;;;;;;;76.87;34.67;;;;;;;;;;6119311;23;20173;-89
2021/05/21 02:15:57;;;;;;;4.67;2.97;;;;;;;;;;6101853;23;20613;-88
2021/05/21 02:19:01;;;;;;;6.13;3.40;;;;;;;;;;6121358;23;20253;-87
2021/05/21 02:22:07;;;;;;;8.30;3.70;;;;;;;;;;6118689;23;20618;-90
2021/05/21 02:25:14;;;;;;;5.33;2.53;;;;;;;;;;6104031;23;20183;-91
2021/05/21 02:28:18;;;;;;;4.37;2.57;;;;;;;;;;6103550;23;20170;-89
2021/05/21 02:31:23;;;;;;;16.00;9.10;;;;;;;;;;6120284;23;20293;-89
2021/05/21 02:34:27;;;;;;;4.90;3.20;;;;;;;;;;6119413;23;20212;-90
2021/05/21 02:37:32;;;;;;;4.13;2.70;;;;;;;;;;6085484;23;20177;-91
2021/05/21 02:40:37;;;;;;;3.97;2.67;;;;;;;;;;6085708;23;20211;-88
2021/05/21 02:43:41;;;;;;;7.47;2.90;;;;;;;;;;6085432;23;20202;-90
2021/05/21 02:46:49;;;;;;;6.93;2.30;;;;;;;;;;6085591;23;20191;-91
2021/05/21 02:49:54;;;;;;;5.70;2.60;;;;;;;;;;6085290;23;20170;-86
2021/05/21 02:52:59;;;;;;;4.60;2.30;;;;;;;;;;6085076;23;20201;-90
2021/05/21 02:56:05;;;;;;;3.50;2.40;;;;;;;;;;6085473;23;20218;-90
2021/05/21 02:59:09;;;;;;;6.67;2.43;;;;;;;;;;6086137;23;20178;-89
2021/05/21 03:02:14;;;;;;;4.30;2.20;;;;;;;;;;6085983;23;20177;-90
2021/05/21 03:05:22;;;;;;;4.47;2.30;;;;;;;;;;6084912;23;20197;-91
2021/05/21 03:08:27;;;;;;;3.60;2.30;;;;;;;;;;6086217;23;20174;-90
2021/05/21 03:11:32;;;;;;;7.50;2.40;;;;;;;;;;6085275;23;20250;-87
2021/05/21 03:14:36;;;;;;;3.17;2.40;;;;;;;;;;6086444;23;20233;-89
2021/05/21 03:17:40;;;;;;;5.67;2.60;;;;;;;;;;6085266;23;20213;-88
2021/05/21 03:20:45;;;;;;;4.47;2.20;;;;;;;;;;6086298;23;20228;-89
2021/05/21 03:23:50;;;;;;;3.63;2.43;;;;;;;;;;6084183;23;20178;-89
2021/05/21 03:26:55;;;;;;;6.63;2.70;;;;;;;;;;6086438;23;20170;-91
2021/05/21 03:30:00;;;;;;;8.13;2.70;;;;;;;;;;6086357;23;20178;-88
2021/05/21 03:33:05;;;;;;;3.47;2.33;;;;;;;;;;6087562;23;20201;-89
2021/05/21 03:36:10;;;;;;;6.67;2.63;;;;;;;;;;6098719;23;20263;-90
2021/05/21 03:39:15;;;;;;;8.67;3.17;;;;;;;;;;6101252;23;20173;-91
2021/05/21 03:42:21;;;;;;;5.20;2.87;;;;;;;;;;6102200;23;20202;-89
2021/05/21 03:45:25;;;;;;;6.60;3.00;;;;;;;;;;6101974;23;20169;-89
2021/05/21 03:48:30;;;;;;;5.00;3.00;;;;;;;;;;6101730;23;20230;-90
2021/05/21 03:51:34;;;;;;;8.00;3.00;;;;;;;;;;6101679;23;20513;-89
2021/05/21 03:54:38;;;;;;;6.43;3.00;;;;;;;;;;6104383;23;20206;-90
2021/05/21 03:57:44;;;;;;;5.93;3.03;;;;;;;;;;6102107;23;20250;-90
2021/05/21 04:00:54;;;;;;;5.40;3.17;;;;;;;;;;6118275;23;20214;-89
2021/05/21 04:03:59;;;;;;;7.40;2.83;;;;;;;;;;6118912;23;20182;-88
2021/05/21 04:07:03;;;;;;;9.77;3.10;;;;;;;;;;6102857;23;20565;-91
2021/05/21 04:10:08;;;;;;;3.80;2.50;;;;;;;;;;6102272;23;20177;-91
2021/05/21 04:13:14;;;;;;;4.40;2.87;;;;;;;;;;6119119;23;20262;-89
2021/05/21 04:16:18;;;;;;;5.23;2.80;;;;;;;;;;6101342;23;20282;-87
2021/05/21 04:19:22;;;;;;;4.43;2.70;;;;;;;;;;6102501;23;20165;-86
2021/05/21 04:22:27;;;;;;;5.03;2.70;;;;;;;;;;6102414;23;20229;-88
2021/05/21 04:25:31;;;;;;;7.93;3.53;;;;;;;;;;6103002;23;20169;-91
2021/05/21 04:28:38;;;;;;;8.67;3.20;;;;;;;;;;6119638;23;20189;-87
2021/05/21 04:31:42;;;;;;;6.80;3.53;;;;;;;;;;6119716;23;20219;-87
2021/05/21 04:34:46;;;;;;;8.93;3.83;;;;;;;;;;6120195;23;20240;-87
2021/05/21 04:37:51;;;;;;;8.53;3.90;;;;;;;;;;6087153;23;20173;-89
2021/05/21 04:40:55;;;;;;;5.63;3.90;;;;;;;;;;6086492;23;20185;-88
2021/05/21 04:44:00;;;;;;;16.83;8.30;;;;;;;;;;6086383;23;20608;-88
2021/05/21 04:47:05;;;;;;;13.23;7.00;;;;;;;;;;6086756;23;20219;-89
2021/05/21 04:50:09;;;;;;;28.03;14.07;;;;;;;;;;6086448;23;20209;-89
2021/05/21 04:53:14;;;;;;;9.97;4.97;;;;;;;;;;6085917;23;20164;-89
2021/05/21 04:56:19;;;;;;;8.50;3.90;;;;;;;;;;6086858;23;20169;-89
2021/05/21 04:59:24;;;;;;;13.07;4.87;;;;;;;;;;6087330;23;20195;-90
2021/05/21 05:02:29;;;;;;;6.07;2.93;;;;;;;;;;6086582;23;20177;-89
2021/05/21 05:05:33;;;;;;;5.33;2.67;;;;;;;;;;6085081;23;20497;-91
2021/05/21 05:08:37;;;;;;;3.83;2.60;;;;;;;;;;6085205;23;20228;-89
2021/05/21 05:11:42;;;;;;;3.83;2.80;;;;;;;;;;6086853;23;20251;-89
2021/05/21 05:14:48;;;;;;;8.03;3.30;;;;;;;;;;6086268;23;20257;-90
2021/05/21 05:17:53;;;;;;;8.33;2.50;;;;;;;;;;6086876;23;20186;-88
2021/05/21 05:20:58;;;;;;;9.00;3.30;;;;;;;;;;6087262;23;20571;-89
2021/05/21 05:24:03;;;;;;;6.57;3.07;;;;;;;;;;6087196;23;20225;-91
2021/05/21 05:27:07;;;;;;;5.53;3.03;;;;;;;;;;6087238;23;20247;-90
2021/05/21 05:30:13;;;;;;;10.67;3.13;;;;;;;;;;6085827;23;20210;-91
2021/05/21 05:33:19;;;;;;;5.07;3.00;;;;;;;;;;6088051;23;20245;-88
2021/05/21 05:36:24;;;;;;;4.70;2.73;;;;;;;;;;6103048;23;20193;-90
2021/05/21 05:39:28;;;;;;;8.93;3.80;;;;;;;;;;6120703;23;20177;-91
2021/05/21 05:42:33;;;;;;;7.63;3.60;;;;;;;;;;6104854;23;20173;-90
2021/05/21 05:45:39;;;;;;;9.13;3.55;;;;;;;;;;6121256;23;20387;-88
2021/05/21 05:48:43;;;;;;;8.00;3.17;;;;;;;;;;6121493;23;20218;-90
2021/05/21 05:51:47;;;;;;;4.45;2.72;;;;;;;;;;6106951;23;20223;-90
2021/05/21 05:54:52;;;;;;;5.03;2.70;;;;;;;;;;6124552;23;20304;-88
2021/05/21 05:57:57;;;;;;;4.45;2.60;;;;;;;;;;6104568;23;20191;-89
2021/05/21 06:01:02;;;;;;;6.38;3.10;;;;;;;;;;6107114;23;20174;-88
2021/05/21 06:04:06;;;;;;;4.43;2.60;;;;;;;;;;6122528;23;20201;-90
2021/05/21 06:07:11;;;;;;;9.40;2.83;;;;;;;;;;6107264;23;20730;-88
2021/05/21 06:10:15;;;;;;;4.43;2.88;;;;;;;;;;6120072;23;20169;-89
2021/05/21 06:13:23;;;;;;;5.13;2.65;;;;;;;;;;6118950;23;20182;-90
2021/05/21 06:16:28;;;;;;;4.68;2.85;;;;;;;;;;6101526;23;20216;-88
2021/05/21 06:19:33;;;;;;;4.25;2.65;;;;;;;;;;6101425;23;20170;-87
2021/05/21 06:22:37;;;;;;;6.68;2.75;;;;;;;;;;6100388;23;20174;-88
2021/05/21 06:25:55;;;;;;;8.10;2.50;;;;;;;;;;6102244;23;20300;-89
2021/05/21 06:29:00;;;;;;;4.80;2.67;;;;;;;;;;6120583;23;20189;-89
2021/05/21 06:32:05;;;;;;;4.60;2.25;;;;;;;;;;6121541;23;20335;-88
2021/05/21 06:35:11;;;;;;;5.15;2.30;;;;;;;;;;6121534;23;20241;-88
2021/05/21 06:38:15;;;;;;;8.80;2.50;;;;;;;;;;6121800;23;20225;-88
2021/05/21 06:41:19;;;;;;;8.90;2.45;;;;;;;;;;6104025;23;20182;-89
2021/05/21 06:44:24;;;;;;;10.32;2.47;;;;;;;;;;6121973;23;20174;-87
2021/05/21 06:47:29;;;;;;;3.70;1.88;;;;;;;;;;6103505;23;20519;-91
2021/05/21 06:50:34;;;;;;;3.35;1.55;;;;;;;;;;6120839;23;20206;-87
2021/05/21 06:53:38;;;;;;;4.65;2.10;;;;;;;;;;6120981;23;20170;-89
2021/05/21 06:56:42;;;;;;;3.13;1.60;;;;;;;;;;6104251;23;20198;-89
2021/05/21 06:59:47;;;;;;;4.20;2.00;;;;;;;;;;6102370;23;20249;-89
2021/05/21 07:02:53;;;;;;;3.15;1.80;;;;;;;;;;6119708;23;20173;-90
2021/05/21 07:05:58;;;;;;;5.07;1.70;;;;;;;;;;6119352;23;20226;-90
2021/05/21 07:09:03;;;;;;;2.53;1.67;;;;;;;;;;6120760;23;20199;-90
2021/05/21 07:12:07;;;;;;;4.55;1.88;;;;;;;;;;6102240;23;20214;-86
2021/05/21 07:15:12;;;;;;;3.65;1.70;;;;;;;;;;6119855;23;20197;-87
2021/05/21 07:18:17;;;;;;;5.40;2.45;;;;;;;;;;6101481;23;20214;-87
2021/05/21 07:21:22;;;;;;;6.88;1.90;;;;;;;;;;6103190;23;20241;-88
2021/05/21 07:24:27;;;;;;;4.20;1.73;;;;;;;;;;6119162;23;20198;-88
2021/05/21 07:27:32;;;;;;;7.80;1.90;;;;;;;;;;6120000;23;20174;-89
2021/05/21 07:30:36;;;;;;;4.40;1.42;;;;;;;;;;6120413;23;20174;-90
2021/05/21 07:33:42;;;;;;;4.72;1.92;;;;;;;;;;6120023;23;20177;-92
2021/05/21 07:36:46;;;;;;;4.78;1.90;;;;;;;;;;6124085;23;20170;-91
2021/05/21 07:39:51;;;;;;;4.38;1.50;;;;;;;;;;6121596;23;20202;-91
2021/05/21 07:42:55;;;;;;;2.88;1.58;;;;;;;;;;6122192;23;20173;-87
2021/05/21 07:46:00;;;;;;;4.32;1.92;;;;;;;;;;6106299;23;20178;-89
2021/05/21 07:49:05;;;;;;;5.75;2.10;;;;;;;;;;6103305;23;20259;-90
2021/05/21 07:52:10;;;;;;;3.40;2.22;;;;;;;;;;6102904;23;20278;-87
2021/05/21 07:55:14;;;;;;;3.05;1.95;;;;;;;;;;6120574;23;20712;-88
2021/05/21 07:58:18;;;;;;;3.97;1.75;;;;;;;;;;6121606;23;20176;-90
2021/05/21 08:01:23;;;;;;;3.28;1.92;;;;;;;;;;6122284;23;20199;-89
2021/05/21 08:04:28;;;;;;;5.28;1.88;;;;;;;;;;6123333;23;20193;-91
2021/05/21 08:07:32;;;;;;;5.80;2.03;;;;;;;;;;6123632;23;20233;-90
2021/05/21 08:10:37;;;;;;;4.35;1.42;;;;;;;;;;6123877;23;20227;-89
2021/05/21 08:13:42;;;;;;;4.10;1.90;;;;;;;;;;6111102;23;20210;-92
2021/05/21 08:16:46;;;;;;;7.20;1.73;;;;;;;;;;6125905;23;20202;-89
2021/05/21 08:19:52;;;;;;;7.30;1.65;;;;;;;;;;6109464;23;20218;-91
2021/05/21 08:22:56;;;;;;;2.92;1.70;;;;;;;;;;6126050;23;20556;-91
2021/05/21 08:26:02;;;;;;;2.58;1.48;;;;;;;;;;6110386;23;20170;-89
2021/05/21 08:29:07;;;;;;;3.65;1.42;;;;;;;;;;6125053;23;20195;-92
2021/05/21 08:32:11;;;;;;;2.60;1.20;;;;;;;;;;6123913;23;20201;-90
2021/05/21 08:35:17;;;;;;;1.80;1.05;;;;;;;;;;6108634;23;20218;-91
2021/05/21 08:38:23;;;;;;;3.33;1.23;;;;;;;;;;6127462;23;20186;-90
2021/05/21 08:41:34;;;;;;;2.45;0.90;;;;;;;;;;6129347;23;20227;-92
2021/05/21 08:44:45;;;;;;;3.60;0.90;;;;;;;;;;6126213;23;20169;-90
2021/05/21 08:47:50;;;;;;;8.40;1.20;;;;;;;;;;6126760;23;20182;-90
2021/05/21 08:50:56;;;;;;;1.52;1.13;;;;;;;;;;6128662;23;20497;-90
2021/05/21 08:54:02;;;;;;;3.97;1.13;;;;;;;;;;6111286;23;20170;-92
2021/05/21 08:57:07;;;;;;;3.28;1.40;;;;;;;;;;6125855;23;20182;-89
2021/05/21 09:00:12;;;;;;;2.28;1.40;;;;;;;;;;6125520;23;20227;-92
2021/05/21 09:03:18;;;;;;;6.53;1.25;;;;;;;;;;6125500;23;20181;-89
2021/05/21 09:06:24;;;;;;;3.72;1.08;;;;;;;;;;6127285;23;20205;-88
2021/05/21 09:09:36;;;;;;;2.35;0.98;;;;;;;;;;6125358;23;20199;-92
2021/05/21 09:12:41;;;;;;;3.45;1.20;;;;;;;;;;6106407;23;20170;-91
2021/05/21 09:15:45;;;;;;;3.45;1.30;;;;;;;;;;6111147;23;20197;-92
2021/05/21 09:19:05;;;;;;;3.10;1.30;;;;;;;;;;6109321;23;20182;-90
2021/05/21 09:22:12;;;;;;;4.93;1.30;;;;;;;;;;6128562;23;20174;-89
2021/05/21 09:25:35;;;;;;;5.38;1.38;;;;;;;;;;6125432;23;20166;-90
2021/05/21 09:28:40;;;;;;;5.10;1.83;;;;;;;;;;6128199;23;20562;-88
2021/05/21 09:31:45;;;;;;;5.85;1.30;;;;;;;;;;6129204;23;20225;-90
2021/05/21 09:35:04;;;;;;;3.30;1.30;;;;;;;;;;6111698;23;20213;-92
2021/05/21 09:38:15;;;;;;;2.10;1.20;;;;;;;;;;6091762;23;20174;-90
2021/05/21 09:41:19;;;;;;;2.28;1.13;;;;;;;;;;6091481;23;20242;-90
2021/05/21 09:44:24;;;;;;;9.30;1.55;;;;;;;;;;6089886;23;20491;-89
2021/05/21 09:47:47;;;;;;;3.00;1.30;;;;;;;;;;6088554;23;20645;-92
2021/05/21 09:50:52;;;;;;;2.70;1.23;;;;;;;;;;6090891;23;20628;-91
2021/05/21 09:54:01;;;;;;;2.88;1.38;;;;;;;;;;6089655;23;20265;-89
2021/05/21 09:57:06;;;;;;;1.55;0.98;;;;;;;;;;6089017;23;20214;-89
2021/05/21 10:00:12;;;;;;;2.92;1.13;;;;;;;;;;6089664;23;20162;-91
2021/05/21 10:03:17;;;;;;;3.10;1.23;;;;;;;;;;6110035;23;20218;-90
2021/05/21 10:06:23;;;;;;;3.65;1.17;;;;;;;;;;6107568;23;20162;-88
2021/05/21 10:09:29;;;;;;;3.50;1.02;;;;;;;;;;6109875;23;20178;-91
2021/05/21 10:12:33;;;;;;;4.32;1.13;;;;;;;;;;6107467;23;20216;-92
2021/05/21 10:15:37;;;;;;;7.65;1.30;;;;;;;;;;6107273;23;20193;-89
2021/05/21 10:18:44;;;;;;;4.47;0.95;;;;;;;;;;6110160;23;20268;-91
2021/05/21 10:21:48;;;;;;;3.67;1.02;;;;;;;;;;6111841;23;20223;-90
2021/05/21 10:25:00;;;;;;;2.88;1.20;;;;;;;;;;6111881;23;20219;-89
2021/05/21 10:28:06;;;;;;;4.13;1.00;;;;;;;;;;6109295;23;20243;-89
2021/05/21 10:31:13;;;;;;;6.30;1.50;;;;;;;;;;6110181;23;20170;-89
2021/05/21 10:34:18;;;;;;;1.85;0.80;;;;;;;;;;6108232;23;20193;-88
2021/05/21 10:37:42;;;;;;;2.00;1.00;;;;;;;;;;6108864;23;20555;-90
2021/05/21 10:41:22;;;;;;;3.17;0.90;;;;;;;;;;6106554;23;20178;-89
2021/05/21 10:44:38;;;;;;;2.40;1.10;;;;;;;;;;6090226;23;20170;-91
2021/05/21 10:47:45;;;;;;;2.60;0.80;;;;;;;;;;6087901;23;20174;-87
2021/05/21 10:50:49;;;;;;;1.77;0.95;;;;;;;;;;6088680;23;20178;-90
2021/05/21 10:54:13;;;;;;;3.67;0.80;;;;;;;;;;6086429;23;20174;-89
2021/05/21 10:57:18;;;;;;;1.95;0.80;;;;;;;;;;6088949;23;20214;-87
2021/05/21 11:00:23;;;;;;;8.70;1.00;;;;;;;;;;6090620;23;20291;-88
2021/05/21 11:03:29;;;;;;;4.53;1.30;;;;;;;;;;6090638;23;20181;-90
2021/05/21 11:06:45;;;;;;;2.55;0.90;;;;;;;;;;6092112;23;20214;-89
2021/05/21 11:09:50;;;;;;;2.25;0.90;;;;;;;;;;6090637;23;20186;-89
2021/05/21 11:12:59;;;;;;;2.63;0.80;;;;;;;;;;6091125;23;20173;-90
2021/05/21 11:16:04;;;;;;;4.72;0.90;;;;;;;;;;6090600;23;20210;-90
2021/05/21 11:19:20;;;;;;;2.85;0.80;;;;;;;;;;6091756;23;20201;-90
2021/05/21 11:22:32;;;;;;;1.85;0.88;;;;;;;;;;6090183;23;20194;-90
2021/05/21 11:25:37;;;;;;;2.70;1.10;;;;;;;;;;6095630;23;20222;-91
2021/05/21 11:28:43;;;;;;;4.30;0.90;;;;;;;;;;6091646;23;20178;-90
2021/05/21 11:31:51;;;;;;;3.70;1.25;;;;;;;;;;6092497;23;20221;-88
2021/05/21 11:34:55;;;;;;;5.82;1.38;;;;;;;;;;6094332;23;20264;-89
2021/05/21 11:38:00;;;;;;;7.03;0.90;;;;;;;;;;6091494;23;20240;-90
2021/05/21 11:41:06;;;;;;;2.80;1.15;;;;;;;;;;6088332;23;20201;-91
2021/05/21 11:44:11;;;;;;;2.15;0.90;;;;;;;;;;6089201;23;20226;-89
2021/05/21 11:47:22;;;;;;;5.50;1.10;;;;;;;;;;6087631;23;20169;-89
2021/05/21 11:50:29;;;;;;;2.35;1.00;;;;;;;;;;6086617;23;20178;-89
2021/05/21 11:53:34;;;;;;;3.25;1.15;;;;;;;;;;6085778;23;20239;-90
2021/05/21 11:56:39;;;;;;;1.67;0.90;;;;;;;;;;6092643;23;20201;-90
2021/05/21 11:59:44;;;;;;;4.13;0.90;;;;;;;;;;6090731;23;20222;-92
2021/05/21 12:02:51;;;;;;;3.13;1.48;;;;;;;;;;6090766;23;20219;-92
2021/05/21 12:05:56;;;;;;;1.42;1.05;;;;;;;;;;6094772;23;20548;-93
2021/05/21 12:09:01;;;;;;;3.08;0.90;;;;;;;;;;6092726;23;20195;-92
2021/05/21 12:12:07;;;;;;;3.17;0.73;;;;;;;;;;6093432;23;20201;-92
2021/05/21 12:15:12;;;;;;;2.15;1.10;;;;;;;;;;6092778;23;20193;-91
2021/05/21 12:18:18;;;;;;;2.38;0.90;;;;;;;;;;6089345;23;20181;-88
2021/05/21 12:21:23;;;;;;;6.32;1.70;;;;;;;;;;6092927;23;20153;-90
2021/05/21 12:24:28;;;;;;;2.42;1.05;;;;;;;;;;6110402;23;20206;-91
2021/05/21 12:27:34;;;;;;;2.05;1.00;;;;;;;;;;6091133;23;20177;-92
2021/05/21 12:30:39;;;;;;;2.60;0.90;;;;;;;;;;6089243;23;20170;-89
2021/05/21 12:33:44;;;;;;;8.68;1.00;;;;;;;;;;6091238;23;20254;-90
2021/05/21 12:36:56;;;;;;;2.55;0.95;;;;;;;;;;6090866;23;20194;-91
2021/05/21 12:40:02;;;;;;;6.82;0.85;;;;;;;;;;6089056;23;20194;-91
2021/05/21 12:43:09;;;;;;;2.92;0.90;;;;;;;;;;6090323;23;20199;-90
2021/05/21 12:46:15;;;;;;;2.90;1.05;;;;;;;;;;6091354;23;20261;-90
2021/05/21 12:49:25;;;;;;;5.55;1.20;;;;;;;;;;6091351;23;20186;-91
2021/05/21 12:52:29;;;;;;;4.05;1.17;;;;;;;;;;6089897;23;20218;-89
2021/05/21 12:55:48;;;;;;;2.38;0.95;;;;;;;;;;6091052;23;20198;-90
2021/05/21 12:58:55;;;;;;;1.80;1.20;;;;;;;;;;6090648;23;20169;-89
2021/05/21 13:02:00;;;;;;;10.65;1.33;;;;;;;;;;6090662;23;20553;-90
2021/05/21 13:05:09;;;;;;;1.30;0.80;;;;;;;;;;6092258;23;20625;-91
2021/05/21 13:08:13;;;;;;;2.63;0.75;;;;;;;;;;6091377;23;20222;-90
2021/05/21 13:11:19;;;;;;;2.90;0.85;;;;;;;;;;6090634;23;20555;-89
2021/05/21 13:14:25;;;;;;;1.30;0.70;;;;;;;;;;6090248;23;20193;-89
2021/05/21 13:17:30;;;;;;;3.08;0.82;;;;;;;;;;6090779;23;20235;-91
2021/05/21 13:20:38;;;;;;;2.33;1.02;;;;;;;;;;6091161;23;20178;-90
2021/05/21 13:23:43;;;;;;;29.67;3.75;;;;;;;;;;6091198;23;20173;-92
2021/05/21 13:26:48;;;;;;;2.63;1.48;;;;;;;;;;6090190;23;20197;-90
2021/05/21 13:29:53;;;;;;;3.22;1.50;;;;;;;;;;6089968;23;20194;-92
2021/05/21 13:32:58;;;;;;;4.78;1.85;;;;;;;;;;6090418;23;20190;-91
2021/05/21 13:36:07;;;;;;;12.52;3.22;;;;;;;;;;6104055;23;20205;-89
2021/05/21 13:39:12;;;;;;;5.63;2.40;;;;;;;;;;6108063;23;20181;-89
2021/05/21 13:42:16;;;;;;;5.03;1.83;;;;;;;;;;6106964;23;20234;-90
2021/05/21 13:45:21;;;;;;;4.80;1.60;;;;;;;;;;6128521;23;20194;-92
2021/05/21 13:48:26;;;;;;;8.40;3.22;;;;;;;;;;6113987;23;20194;-92
2021/05/21 13:51:31;;;;;;;5.40;2.35;;;;;;;;;;6129878;23;20189;-93
2021/05/21 13:54:36;;;;;;;6.28;2.33;;;;;;;;;;6129250;23;20193;-91
2021/05/21 13:57:41;;;;;;;5.32;1.30;;;;;;;;;;6124437;23;20185;-91
2021/05/21 14:00:46;;;;;;;3.47;1.50;;;;;;;;;;6125881;23;20169;-89
2021/05/21 14:03:50;;;;;;;2.03;0.90;;;;;;;;;;6126187;23;20243;-91
2021/05/21 14:06:58;;;;;;;1.38;0.93;;;;;;;;;;6111772;23;20173;-92
2021/05/21 14:10:04;;;;;;;2.10;0.98;;;;;;;;;;6113485;23;20210;-94
2021/05/21 14:13:10;;;;;;;2.50;1.30;;;;;;;;;;6131169;23;20227;-91
2021/05/21 14:16:21;;;;;;;2.50;1.17;;;;;;;;;;6112775;23;20186;-94
2021/05/21 14:19:25;;;;;;;5.60;1.40;;;;;;;;;;6128945;23;20186;-92
2021/05/21 14:22:32;;;;;;;3.33;1.08;;;;;;;;;;6129847;23;20217;-94
2021/05/21 14:25:37;;;;;;;2.88;0.85;;;;;;;;;;6127447;23;20169;-93
2021/05/21 14:28:42;;;;;;;4.47;1.65;;;;;;;;;;6129136;23;20230;-93
2021/05/21 14:31:47;;;;;;;1.95;0.85;;;;;;;;;;6112188;23;20169;-94
2021/05/21 14:34:53;;;;;;;1.95;0.95;;;;;;;;;;6113111;23;20233;-93
2021/05/21 14:37:59;;;;;;;2.08;0.90;;;;;;;;;;6096088;23;20250;-92
2021/05/21 14:41:06;;;;;;;4.97;1.10;;;;;;;;;;6095544;23;20174;-93
2021/05/21 14:44:12;;;;;;;2.45;0.90;;;;;;;;;;6094859;23;20178;-93
2021/05/21 14:47:17;;;;;;;6.72;1.10;;;;;;;;;;6097404;23;20585;-94
2021/05/21 14:50:22;;;;;;;5.13;1.25;;;;;;;;;;6095435;23;20174;-93
2021/05/21 14:53:28;;;;;;;3.33;1.00;;;;;;;;;;6095923;23;20198;-91
2021/05/21 14:56:33;;;;;;;1.40;0.80;;;;;;;;;;6097966;23;20210;-90
2021/05/21 14:59:41;;;;;;;1.63;1.02;;;;;;;;;;6097575;23;20271;-93
2021/05/21 15:02:49;;;;;;;2.38;0.90;;;;;;;;;;6098720;23;20214;-93
2021/05/21 15:05:53;;;;;;;5.15;1.00;;;;;;;;;;6094686;23;20191;-89
2021/05/21 15:09:01;;;;;;;2.75;1.13;;;;;;;;;;6092840;23;20511;-91
2021/05/21 15:12:06;;;;;;;1.70;1.00;;;;;;;;;;6092477;23;20201;-90
2021/05/21 15:15:18;;;;;;;2.22;0.90;;;;;;;;;;6091859;23;20197;-89
2021/05/21 15:22:05;;;;;;;1.98;0.88;;;;;;;;;;6052489;23;20193;-90
2021/05/21 15:25:11;;;;;;;2.05;1.17;;;;;;;;;;6093518;23;20194;-90
2021/05/21 15:28:16;;;;;;;1.73;0.90;;;;;;;;;;6091177;23;20177;-89
2021/05/21 15:31:20;;;;;;;3.03;1.30;;;;;;;;;;6092087;23;20181;-92
2021/05/21 15:34:25;;;;;;;1.02;0.70;;;;;;;;;;6093355;23;20267;-90
2021/05/21 15:37:30;;;;;;;2.45;0.80;;;;;;;;;;6091908;23;20622;-88
2021/05/21 15:40:36;;;;;;;2.53;1.30;;;;;;;;;;6088534;23;20213;-90
2021/05/21 15:47:03;;;;;;;3.28;1.20;;;;;;;;;;6092100;23;20162;-92
2021/05/21 15:50:14;;;;;;;6.07;1.40;;;;;;;;;;6091343;23;20191;-92
2021/05/21 15:53:35;;;;;;;2.20;0.90;;;;;;;;;;6092410;23;20214;-91
2021/05/21 16:00:13;;;;;;;2.67;1.20;;;;;;;;;;6071851;23;20431;-91
2021/05/21 16:03:19;;;;;;;1.60;0.88;;;;;;;;;;6090626;23;20174;-90
2021/05/21 16:06:25;;;;;;;1.92;0.98;;;;;;;;;;6095375;23;20219;-93
2021/05/21 16:09:30;;;;;;;1.77;0.90;;;;;;;;;;6098072;23;20218;-93
2021/05/21 16:12:36;;;;;;;2.47;0.75;;;;;;;;;;6095572;23;20218;-92
2021/05/21 16:15:42;;;;;;;4.53;1.10;;;;;;;;;;6096875;23;20251;-90
2021/05/21 16:18:49;;;;;;;3.58;0.93;;;;;;;;;;6096265;23;20174;-90
2021/05/21 16:21:53;;;;;;;2.65;1.00;;;;;;;;;;6095614;23;20232;-88
2021/05/21 16:24:58;;;;;;;2.22;0.85;;;;;;;;;;6094726;23;20227;-90
2021/05/21 16:28:04;;;;;;;2.10;1.08;;;;;;;;;;6094190;23;20177;-89
2021/05/21 16:31:09;;;;;;;3.15;1.30;;;;;;;;;;6093281;23;20173;-91
2021/05/21 16:34:15;;;;;;;4.82;1.10;;;;;;;;;;6091894;23;20222;-88
2021/05/21 16:37:20;;;;;;;4.55;1.40;;;;;;;;;;6093242;23;20158;-88
2021/05/21 16:40:25;;;;;;;6.45;2.72;;;;;;;;;;6091164;23;20242;-87
2021/05/21 16:43:31;;;;;;;2.10;1.20;;;;;;;;;;6090247;23;20224;-90
2021/05/21 16:46:39;;;;;;;2.30;1.20;;;;;;;;;;6094965;23;20188;-89
2021/05/21 16:49:44;;;;;;;1.25;0.95;;;;;;;;;;6092092;23;20199;-89
2021/05/21 16:52:50;;;;;;;4.00;1.75;;;;;;;;;;6089951;23;20218;-91
2021/05/21 16:55:55;;;;;;;3.72;1.75;;;;;;;;;;6090360;23;20197;-88
2021/05/21 16:59:01;;;;;;;2.80;1.00;;;;;;;;;;6109442;23;20223;-89
2021/05/21 17:02:05;;;;;;;4.75;0.82;;;;;;;;;;6087366;23;20241;-91
2021/05/21 17:05:13;;;;;;;2.20;1.10;;;;;;;;;;6092175;23;20281;-89
2021/05/21 17:08:21;;;;;;;8.32;0.93;;;;;;;;;;6095852;23;20178;-91
2021/05/21 17:11:30;;;;;;;9.70;1.42;;;;;;;;;;6098040;23;20178;-92
2021/05/21 17:14:39;;;;;;;5.45;2.30;;;;;;;;;;6090804;23;20174;-91
2021/05/21 17:21:37;;;;;;;4.63;2.00;;;;;;;;;;6106704;23;20239;-89
2021/05/21 17:28:36;;;;;;;1.20;1.00;;;;;;;;;;6091814;23;20613;-90
2021/05/21 17:42:27;;;;;;;5.10;2.95;;;;;;;;;;6109041;23;20805;-90
2021/05/21 17:45:34;;;;;;;3.97;1.30;;;;;;;;;;6126313;23;20193;-89
2021/05/21 17:48:44;;;;;;;12.82;8.07;;;;;;;;;;6126228;23;20178;-90
2021/05/21 17:55:25;;;;;;;432.70;162.52;;;;;;;;;;6109964;23;20170;-91
2021/05/21 17:58:53;;;;;;;12.07;6.45;;;;;;;;;;6126806;23;20174;-92
2021/05/21 18:02:11;;;;;;;8.85;5.15;;;;;;;;;;6110404;23;20178;-91
2021/05/21 18:05:30;;;;;;;8.50;3.50;;;;;;;;;;6111077;23;20206;-89
2021/05/21 18:08:40;;;;;;;5.47;3.35;;;;;;;;;;6109572;23;20175;-91
2021/05/21 18:11:56;;;;;;;8.20;3.72;;;;;;;;;;6126960;23;20178;-91
2021/05/21 18:18:34;;;;;;;6.30;4.15;;;;;;;;;;6100898;23;20213;-90
2021/05/21 18:42:18;;;;;;;37.03;17.02;;;;;;;;;;6111044;23;20218;-90
2021/05/21 18:46:00;;;;;;;17.33;5.82;;;;;;;;;;6107766;23;20226;-90
2021/05/21 19:02:42;;;;;;;5.93;2.05;;;;;;;;;;6111747;23;20170;-90
2021/05/21 19:05:48;;;;;;;8.15;1.95;;;;;;;;;;6128122;23;20246;-91
2021/05/21 19:08:57;;;;;;;5.38;2.33;;;;;;;;;;6128170;23;20240;-90
2021/05/21 19:12:05;;;;;;;4.93;1.88;;;;;;;;;;6128728;23;20177;-90
2021/05/21 19:18:39;;;;;;;4.85;2.70;;;;;;;;;;6111283;23;20189;-91
2021/05/21 19:21:44;;;;;;;5.80;3.58;;;;;;;;;;6111527;23;20170;-90
2021/05/21 19:24:49;;;;;;;7.50;3.72;;;;;;;;;;6128110;23;20174;-91
2021/05/21 19:27:55;;;;;;;5.13;3.00;;;;;;;;;;6111246;23;20194;-90
2021/05/21 19:34:40;;;;;;;16.60;8.13;;;;;;;;;;6110176;23;20186;-90
2021/05/21 19:41:35;;;;;;;9.55;4.47;;;;;;;;;;6093149;23;20190;-91
2021/05/21 19:44:48;;;;;;;10.55;4.63;;;;;;;;;;6094334;23;20539;-90
2021/05/21 20:11:54;;;;;;;5.18;2.60;;;;;;;;;;6091775;23;20238;-91
2021/05/21 20:14:58;;;;;;;5.88;2.15;;;;;;;;;;6094276;23;20178;-92
2021/05/21 20:18:05;;;;;;;7.68;2.35;;;;;;;;;;6094145;23;20169;-90
2021/05/21 20:21:10;;;;;;;5.80;2.60;;;;;;;;;;6095234;23;20165;-91